createdAt,value
2018-11-02T00:02:00.930Z,10.90
2018-11-02T00:04:29.130Z,10.90
2018-11-02T00:06:57.781Z,10.90
2018-11-02T00:09:26.018Z,10.90
2018-11-02T00:11:54.251Z,10.90
2018-11-02T00:14:22.834Z,10.90
2018-11-02T00:16:51.028Z,11.00
2018-11-02T00:19:26.890Z,10.90
2018-11-02T00:21:55.093Z,11.00
2018-11-02T00:24:23.977Z,11.00
2018-11-02T00:26:52.298Z,11.00
2018-11-02T00:29:20.487Z,11.00
2018-11-02T00:31:48.762Z,11.00
2018-11-02T00:34:17.056Z,11.00
2018-11-02T00:36:45.404Z,10.90
2018-11-02T00:39:14.147Z,11.00
2018-11-02T00:41:42.947Z,10.90
2018-11-02T00:44:11.369Z,11.00
2018-11-02T00:46:39.935Z,11.00
2018-11-02T00:49:08.235Z,11.00
2018-11-02T00:51:37.221Z,11.00
2018-11-02T00:54:06.103Z,11.00
2018-11-02T00:56:34.347Z,11.00
2018-11-02T00:59:02.628Z,11.00
2018-11-02T01:01:30.819Z,11.10
2018-11-02T01:04:00.537Z,11.00
2018-11-02T01:06:30.047Z,11.00
2018-11-02T01:08:58.397Z,11.00
2018-11-02T01:11:26.790Z,11.00
2018-11-02T01:13:55.043Z,11.00
2018-11-02T01:16:23.268Z,11.00
2018-11-02T01:18:51.589Z,11.00
2018-11-02T01:21:19.795Z,10.90
2018-11-02T01:23:48.094Z,10.90
2018-11-02T01:26:16.323Z,10.90
2018-11-02T01:28:44.638Z,10.80
2018-11-02T01:31:12.859Z,10.80
2018-11-02T01:33:41.362Z,10.80
2018-11-02T01:36:10.694Z,10.80
2018-11-02T01:38:38.882Z,10.80
2018-11-02T01:41:07.598Z,10.80
2018-11-02T01:43:35.830Z,10.80
2018-11-02T01:46:04.150Z,10.80
2018-11-02T01:48:32.458Z,10.80
2018-11-02T01:51:00.711Z,10.70
2018-11-02T01:53:28.918Z,10.70
2018-11-02T01:55:57.686Z,10.70
2018-11-02T01:58:26.031Z,10.70
2018-11-02T02:00:54.260Z,10.70
2018-11-02T02:03:22.938Z,10.70
2018-11-02T02:05:51.126Z,10.70
2018-11-02T02:08:19.323Z,10.70
2018-11-02T02:10:47.643Z,10.60
2018-11-02T02:13:15.871Z,10.60
2018-11-02T02:15:44.145Z,10.60
2018-11-02T02:18:12.854Z,10.50
2018-11-02T02:20:41.038Z,10.50
2018-11-02T02:23:09.243Z,10.50
2018-11-02T02:25:38.050Z,10.50
2018-11-02T02:28:06.291Z,10.50
2018-11-02T02:30:35.487Z,10.40
2018-11-02T02:33:04.107Z,10.40
2018-11-02T02:35:32.353Z,10.40
2018-11-02T02:38:00.582Z,10.40
2018-11-02T02:40:29.908Z,10.40
2018-11-02T02:42:58.129Z,10.40
2018-11-02T02:45:26.318Z,10.40
2018-11-02T02:47:54.730Z,10.30
2018-11-02T02:50:23.544Z,10.30
2018-11-02T02:52:51.750Z,10.20
2018-11-02T02:55:20.754Z,10.20
2018-11-02T02:57:48.963Z,10.10
2018-11-02T03:00:17.173Z,10.10
2018-11-02T03:02:47.551Z,10.10
2018-11-02T03:05:15.770Z,10.00
2018-11-02T03:07:43.994Z,10.00
2018-11-02T03:10:12.622Z,9.90
2018-11-02T03:12:40.942Z,9.90
2018-11-02T03:15:09.343Z,10.00
2018-11-02T03:17:37.973Z,10.00
2018-11-02T03:20:07.278Z,9.90
2018-11-02T03:22:35.629Z,9.80
2018-11-02T03:25:04.075Z,9.80
2018-11-02T03:27:32.280Z,9.70
2018-11-02T03:30:00.518Z,9.70
2018-11-02T03:32:28.895Z,9.60
2018-11-02T03:34:57.094Z,9.60
2018-11-02T03:37:25.515Z,9.50
2018-11-02T03:39:54.207Z,9.60
2018-11-02T03:42:22.402Z,9.60
2018-11-02T03:44:50.598Z,9.60
2018-11-02T03:47:18.950Z,9.70
2018-11-02T03:49:47.142Z,9.60
2018-11-02T03:52:15.336Z,9.60
2018-11-02T03:54:44.010Z,9.70
2018-11-02T03:57:12.216Z,9.70
2018-11-02T03:59:40.866Z,9.70
2018-11-02T04:02:11.627Z,9.70
2018-11-02T04:04:39.825Z,9.60
2018-11-02T04:07:08.043Z,9.60
2018-11-02T04:09:36.580Z,9.60
2018-11-02T04:12:04.873Z,9.60
2018-11-02T04:14:33.159Z,9.60
2018-11-02T04:17:01.685Z,9.60
2018-11-02T04:19:29.866Z,9.60
2018-11-02T04:21:58.141Z,9.60
2018-11-02T04:24:26.582Z,9.60
2018-11-02T04:26:54.789Z,9.60
2018-11-02T04:29:23.005Z,9.60
2018-11-02T04:31:52.168Z,9.60
2018-11-02T04:34:20.378Z,9.60
2018-11-02T04:36:48.599Z,9.60
2018-11-02T04:39:17.366Z,9.60
2018-11-02T04:41:45.581Z,9.60
2018-11-02T04:44:13.782Z,9.60
2018-11-02T04:46:42.572Z,9.60
2018-11-02T04:49:11.319Z,9.60
2018-11-02T04:51:39.502Z,9.60
2018-11-02T04:54:08.001Z,9.60
2018-11-02T04:56:36.181Z,9.60
2018-11-02T04:59:04.487Z,9.60
2018-11-02T05:01:33.243Z,9.60
2018-11-02T05:04:01.912Z,9.60
2018-11-02T05:06:30.112Z,9.50
2018-11-02T05:08:58.586Z,9.50
2018-11-02T05:11:26.819Z,9.50
2018-11-02T05:13:55.991Z,9.50
2018-11-02T05:16:24.476Z,9.50
2018-11-02T05:18:52.674Z,9.50
2018-11-02T05:21:21.010Z,9.40
2018-11-02T05:23:49.678Z,9.50
2018-11-02T05:26:18.254Z,9.50
2018-11-02T05:28:46.827Z,9.40
2018-11-02T05:31:19.091Z,9.40
2018-11-02T05:33:47.342Z,9.40
2018-11-02T05:36:15.602Z,9.40
2018-11-02T05:38:45.015Z,9.40
2018-11-02T05:41:13.187Z,9.40
2018-11-02T05:43:41.382Z,9.40
2018-11-02T05:46:09.689Z,9.40
2018-11-02T05:48:37.889Z,9.50
2018-11-02T05:51:06.128Z,9.40
2018-11-02T05:53:34.479Z,9.50
2018-11-02T05:56:02.766Z,9.40
2018-11-02T05:58:30.928Z,9.40
2018-11-02T06:00:59.950Z,9.40
2018-11-02T06:03:28.122Z,9.40
2018-11-02T06:05:56.311Z,9.40
2018-11-02T06:08:25.088Z,9.40
2018-11-02T06:10:53.284Z,9.40
2018-11-02T06:13:21.459Z,9.40
2018-11-02T06:15:50.539Z,9.40
2018-11-02T06:18:19.142Z,9.40
2018-11-02T06:20:47.341Z,9.40
2018-11-02T06:23:15.819Z,9.40
2018-11-02T06:25:43.994Z,9.40
2018-11-02T06:28:12.192Z,9.30
2018-11-02T06:30:41.248Z,9.30
2018-11-02T06:33:09.377Z,9.30
2018-11-02T06:35:37.738Z,9.30
2018-11-02T06:38:06.114Z,9.30
2018-11-02T06:40:34.319Z,9.30
2018-11-02T06:43:02.540Z,9.30
2018-11-02T06:45:31.688Z,9.30
2018-11-02T06:47:59.878Z,9.30
2018-11-02T06:50:28.062Z,9.20
2018-11-02T06:52:57.047Z,9.20
2018-11-02T06:55:25.300Z,9.10
2018-11-02T06:57:53.520Z,9.10
2018-11-02T07:00:22.415Z,9.00
2018-11-02T07:02:50.643Z,9.00
2018-11-02T07:05:18.883Z,8.90
2018-11-02T07:07:47.208Z,8.90
2018-11-02T07:10:15.402Z,8.90
2018-11-02T07:12:43.666Z,8.90
2018-11-02T07:15:13.114Z,8.90
2018-11-02T07:17:41.326Z,8.90
2018-11-02T07:20:09.763Z,8.90
2018-11-02T07:22:38.314Z,8.90
2018-11-02T07:25:07.594Z,8.90
2018-11-02T07:27:35.705Z,8.90
2018-11-02T07:30:05.314Z,9.00
2018-11-02T07:32:33.474Z,9.00
2018-11-02T07:35:01.713Z,9.00
2018-11-02T07:37:30.454Z,9.00
2018-11-02T07:39:58.642Z,9.00
2018-11-02T07:42:27.210Z,9.00
2018-11-02T07:44:55.682Z,9.00
2018-11-02T07:47:23.952Z,9.00
2018-11-02T07:49:52.149Z,9.10
2018-11-02T07:52:20.734Z,9.10
2018-11-02T07:54:48.906Z,9.10
2018-11-02T07:57:17.134Z,9.20
2018-11-02T07:59:45.423Z,9.20
2018-11-02T08:02:13.632Z,9.30
2018-11-02T08:04:41.860Z,9.30
2018-11-02T08:07:10.674Z,9.30
2018-11-02T08:09:38.862Z,9.30
2018-11-02T08:12:07.050Z,9.30
2018-11-02T08:14:36.466Z,9.40
2018-11-02T08:17:05.175Z,9.40
2018-11-02T08:19:33.930Z,9.40
2018-11-02T08:22:02.785Z,9.50
2018-11-02T08:24:34.011Z,9.50
2018-11-02T08:27:04.368Z,9.50
2018-11-02T08:29:32.574Z,9.50
2018-11-02T08:32:00.817Z,9.50
2018-11-02T08:34:29.583Z,9.50
2018-11-02T08:36:57.768Z,9.60
2018-11-02T08:39:25.970Z,9.60
2018-11-02T08:41:54.270Z,9.50
2018-11-02T08:44:22.457Z,9.50
2018-11-02T08:46:50.677Z,9.40
2018-11-02T08:49:19.694Z,9.40
2018-11-02T08:51:48.019Z,9.40
2018-11-02T08:54:16.221Z,9.40
2018-11-02T08:56:44.831Z,9.50
2018-11-02T08:59:13.108Z,9.70
2018-11-02T09:01:41.257Z,9.80
2018-11-02T09:04:09.814Z,9.90
2018-11-02T09:06:38.036Z,9.90
2018-11-02T09:09:07.273Z,9.90
2018-11-02T09:11:35.550Z,10.00
2018-11-02T09:14:04.523Z,10.00
2018-11-02T09:16:32.788Z,10.10
2018-11-02T09:19:01.891Z,10.20
2018-11-02T09:21:30.387Z,10.30
2018-11-02T09:23:58.428Z,10.30
2018-11-02T09:26:27.254Z,10.50
2018-11-02T09:28:56.146Z,10.50
2018-11-02T09:31:24.636Z,10.50
2018-11-02T09:33:53.124Z,10.60
2018-11-02T09:36:21.343Z,10.70
2018-11-02T09:38:49.566Z,10.70
2018-11-02T09:41:18.221Z,10.80
2018-11-02T09:43:47.203Z,10.70
2018-11-02T09:46:15.488Z,10.70
2018-11-02T09:48:44.186Z,10.90
2018-11-02T09:51:12.475Z,10.90
2018-11-02T09:53:40.651Z,10.90
2018-11-02T09:56:08.887Z,11.10
2018-11-02T09:58:37.183Z,11.10
2018-11-02T10:01:05.666Z,11.00
2018-11-02T10:03:34.163Z,11.20
2018-11-02T10:06:03.167Z,11.40
2018-11-02T10:08:31.446Z,11.30
2018-11-02T10:10:59.652Z,11.30
2018-11-02T10:13:27.895Z,11.30
2018-11-02T10:15:56.115Z,11.40
2018-11-02T10:18:24.373Z,11.50
2018-11-02T10:20:52.607Z,11.60
2018-11-02T10:23:20.963Z,11.70
2018-11-02T10:25:49.555Z,11.80
2018-11-02T10:28:17.910Z,11.90
2018-11-02T10:30:46.158Z,11.80
2018-11-02T10:33:15.197Z,11.80
2018-11-02T10:35:43.956Z,11.90
2018-11-02T10:38:12.159Z,12.00
2018-11-02T10:40:42.366Z,12.10
2018-11-02T10:43:12.603Z,12.20
2018-11-02T10:45:42.867Z,12.20
2018-11-02T10:48:11.094Z,12.00
2018-11-02T10:50:39.378Z,11.80
2018-11-02T10:53:08.015Z,11.80
2018-11-02T10:55:36.248Z,11.80
2018-11-02T10:58:04.678Z,11.70
2018-11-02T11:00:38.252Z,11.30
2018-11-02T11:03:06.505Z,11.20
2018-11-02T11:05:34.859Z,11.10
2018-11-02T11:08:03.383Z,11.30
2018-11-02T11:10:31.637Z,11.10
2018-11-02T11:13:00.111Z,10.90
2018-11-02T11:15:28.342Z,10.60
2018-11-02T11:17:56.574Z,10.40
2018-11-02T11:20:24.805Z,10.40
2018-11-02T11:22:53.227Z,10.40
2018-11-02T11:25:21.467Z,10.40
2018-11-02T11:27:53.349Z,10.90
2018-11-02T11:30:21.590Z,11.40
2018-11-02T11:32:50.744Z,11.60
2018-11-02T11:35:20.134Z,11.90
2018-11-02T11:37:48.458Z,11.90
2018-11-02T11:40:19.091Z,11.50
2018-11-02T11:42:47.948Z,11.40
2018-11-02T11:45:17.573Z,11.50
2018-11-02T11:47:45.833Z,11.70
2018-11-02T11:50:17.714Z,11.90
2018-11-02T11:52:47.132Z,12.20
2018-11-02T11:55:15.973Z,12.30
2018-11-02T11:57:44.990Z,12.50
2018-11-02T12:00:15.143Z,12.40
2018-11-02T12:02:44.151Z,12.50
2018-11-02T12:05:14.123Z,12.40
2018-11-02T12:07:42.543Z,12.50
2018-11-02T12:10:13.146Z,12.30
2018-11-02T12:12:41.674Z,12.40
2018-11-02T12:15:12.373Z,12.50
2018-11-02T12:17:42.377Z,12.50
2018-11-02T12:20:13.135Z,12.50
2018-11-02T12:22:42.603Z,12.50
2018-11-02T12:25:12.369Z,12.50
2018-11-02T12:27:40.603Z,12.60
2018-11-02T12:30:10.888Z,12.70
2018-11-02T12:32:39.102Z,12.70
2018-11-02T12:35:08.182Z,12.70
2018-11-02T12:37:37.172Z,12.60
2018-11-02T12:40:07.274Z,12.20
2018-11-02T12:42:35.711Z,12.20
2018-11-02T12:45:04.266Z,12.00
2018-11-02T12:47:32.492Z,12.20
2018-11-02T12:50:00.807Z,12.60
2018-11-02T12:52:28.964Z,12.70
2018-11-02T12:54:57.240Z,12.60
2018-11-02T12:57:25.519Z,12.50
2018-11-02T12:59:54.234Z,12.60
2018-11-02T13:02:22.464Z,12.80
2018-11-02T13:04:51.663Z,12.90
2018-11-02T13:07:19.928Z,12.90
2018-11-02T13:09:48.246Z,12.80
2018-11-02T13:12:16.455Z,12.50
2018-11-02T13:14:44.716Z,12.10
2018-11-02T13:17:12.923Z,12.10
2018-11-02T13:19:41.147Z,12.00
2018-11-02T13:22:09.906Z,12.10
2018-11-02T13:24:38.071Z,12.30
2018-11-02T13:27:06.291Z,12.40
2018-11-02T13:29:34.979Z,12.30
2018-11-02T13:32:03.431Z,12.30
2018-11-02T13:34:31.499Z,12.30
2018-11-02T13:37:00.037Z,12.10
2018-11-02T13:39:28.203Z,12.00
2018-11-02T13:41:56.418Z,11.80
2018-11-02T13:44:25.046Z,11.60
2018-11-02T13:46:53.246Z,11.50
2018-11-02T13:49:22.034Z,11.70
2018-11-02T13:51:51.259Z,11.80
2018-11-02T13:54:26.667Z,11.90
2018-11-02T13:56:55.263Z,11.80
2018-11-02T13:59:23.602Z,11.80
2018-11-02T14:01:51.791Z,11.80
2018-11-02T14:04:20.355Z,11.80
2018-11-02T14:06:48.604Z,11.80
2018-11-02T14:09:16.915Z,11.80
2018-11-02T14:11:45.838Z,11.80
2018-11-02T14:14:13.951Z,11.70
2018-11-02T14:16:42.140Z,11.60
2018-11-02T14:19:11.040Z,11.40
2018-11-02T14:21:39.250Z,11.30
2018-11-02T14:24:07.458Z,11.30
2018-11-02T14:26:35.974Z,11.20
2018-11-02T14:29:04.182Z,11.10
2018-11-02T14:31:32.449Z,11.10
2018-11-02T14:34:01.073Z,11.00
2018-11-02T14:36:29.286Z,10.90
2018-11-02T14:38:57.531Z,10.90
2018-11-02T14:41:26.303Z,10.70
2018-11-02T14:43:54.547Z,10.70
2018-11-02T14:46:22.870Z,10.60
2018-11-02T14:48:51.675Z,10.50
2018-11-02T14:51:23.040Z,10.50
2018-11-02T14:53:51.377Z,10.40
2018-11-02T14:56:19.499Z,10.40
2018-11-02T14:58:47.767Z,10.30
2018-11-02T15:01:15.995Z,10.30
2018-11-02T15:03:44.199Z,10.20
2018-11-02T15:06:12.460Z,10.20
2018-11-02T15:08:40.707Z,10.10
2018-11-02T15:11:08.911Z,10.00
2018-11-02T15:13:37.131Z,10.00
2018-11-02T15:16:05.390Z,10.00
2018-11-02T15:18:33.590Z,10.00
2018-11-02T15:21:01.825Z,9.90
2018-11-02T15:23:30.063Z,9.90
2018-11-02T15:25:58.323Z,9.80
2018-11-02T15:28:26.565Z,9.70
2018-11-02T15:30:55.619Z,9.60
2018-11-02T15:33:23.811Z,9.50
2018-11-02T15:35:52.265Z,9.50
2018-11-02T15:38:20.906Z,9.50
2018-11-02T15:40:49.123Z,9.40
2018-11-02T15:43:17.319Z,9.40
2018-11-02T15:45:45.575Z,9.20
2018-11-02T15:48:13.776Z,9.20
2018-11-02T15:50:41.983Z,9.10
2018-11-02T15:53:10.267Z,9.00
2018-11-02T15:55:38.449Z,9.00
2018-11-02T15:58:08.395Z,9.00
2018-11-02T16:00:38.131Z,8.90
2018-11-02T16:03:06.698Z,8.90
2018-11-02T16:05:34.899Z,8.80
2018-11-02T16:08:03.414Z,8.80
2018-11-02T16:10:32.339Z,8.80
2018-11-02T16:13:01.384Z,8.70
2018-11-02T16:15:29.919Z,8.60
2018-11-02T16:17:58.224Z,8.50
2018-11-02T16:20:26.547Z,8.50
2018-11-02T16:22:55.351Z,8.40
2018-11-02T16:25:23.573Z,8.40
2018-11-02T16:27:51.854Z,8.30
2018-11-02T16:30:20.095Z,8.30
2018-11-02T16:32:48.327Z,8.20
2018-11-02T16:35:22.479Z,8.20
2018-11-02T16:37:51.778Z,8.00
2018-11-02T16:40:20.035Z,8.00
2018-11-02T16:42:48.534Z,8.00
2018-11-02T16:45:16.731Z,7.90
2018-11-02T16:47:45.833Z,7.80
2018-11-02T16:50:14.944Z,7.80
2018-11-02T16:52:43.557Z,7.80
2018-11-02T16:55:11.763Z,7.80
2018-11-02T16:57:40.547Z,7.70
2018-11-02T17:00:10.646Z,7.70
2018-11-02T17:02:39.003Z,7.70
2018-11-02T17:05:08.217Z,7.60
2018-11-02T17:07:36.341Z,7.60
2018-11-02T17:10:05.630Z,7.60
2018-11-02T17:12:34.356Z,7.50
2018-11-02T17:15:02.513Z,7.60
2018-11-02T17:17:31.745Z,7.60
2018-11-02T17:20:00.100Z,7.60
2018-11-02T17:22:28.303Z,7.60
2018-11-02T17:24:56.491Z,7.60
2018-11-02T17:27:25.209Z,7.60
2018-11-02T17:29:53.594Z,7.50
2018-11-02T17:32:22.516Z,7.60
2018-11-02T17:34:51.426Z,7.50
2018-11-02T17:37:19.825Z,7.50
2018-11-02T17:39:47.982Z,7.50
2018-11-02T17:42:16.597Z,7.40
2018-11-02T17:44:48.296Z,7.40
2018-11-02T17:47:16.552Z,7.30
2018-11-02T17:49:44.765Z,7.10
2018-11-02T17:52:13.013Z,6.90
2018-11-02T17:54:41.250Z,6.90
2018-11-02T17:57:09.746Z,6.80
2018-11-02T17:59:38.058Z,6.70
2018-11-02T18:02:06.831Z,6.70
2018-11-02T18:04:35.031Z,6.70
2018-11-02T18:07:04.162Z,6.70
2018-11-02T18:09:32.930Z,6.60
2018-11-02T18:12:02.471Z,6.70
2018-11-02T18:14:30.809Z,6.60
2018-11-02T18:16:59.850Z,6.60
2018-11-02T18:19:28.091Z,6.60
2018-11-02T18:21:57.017Z,6.50
2018-11-02T18:24:26.558Z,6.50
2018-11-02T18:26:55.558Z,6.50
2018-11-02T18:29:24.188Z,6.50
2018-11-02T18:31:52.842Z,6.40
2018-11-02T18:34:23.508Z,6.40
2018-11-02T18:36:51.925Z,6.30
2018-11-02T18:39:20.933Z,6.30
2018-11-02T18:41:50.235Z,6.30
2018-11-02T18:44:21.021Z,6.30
2018-11-02T18:46:49.591Z,6.30
2018-11-02T18:49:18.787Z,6.30
2018-11-02T18:51:47.939Z,6.20
2018-11-02T18:54:16.319Z,6.20
2018-11-02T18:56:45.091Z,6.20
2018-11-02T18:59:13.341Z,6.20
2018-11-02T19:01:42.669Z,6.30
2018-11-02T19:04:10.883Z,6.20
2018-11-02T19:06:40.027Z,6.30
2018-11-02T19:09:09.698Z,6.20
2018-11-02T19:11:37.963Z,6.20
2018-11-02T19:14:06.231Z,6.10
2018-11-02T19:16:35.104Z,6.10
2018-11-02T19:19:03.382Z,6.10
2018-11-02T19:21:31.786Z,6.10
2018-11-02T19:23:59.995Z,6.00
2018-11-02T19:26:28.233Z,6.00
2018-11-02T19:28:56.542Z,6.00
2018-11-02T19:31:25.822Z,5.90
2018-11-02T19:33:54.132Z,5.90
2018-11-02T19:36:22.369Z,5.80
2018-11-02T19:38:51.115Z,5.80
2018-11-02T19:41:19.328Z,5.80
2018-11-02T19:43:47.772Z,5.80
2018-11-02T19:46:16.007Z,5.70
2018-11-02T19:48:45.247Z,5.70
2018-11-02T19:51:13.418Z,5.60
2018-11-02T19:53:41.751Z,5.70
2018-11-02T19:56:09.950Z,5.70
2018-11-02T19:58:38.466Z,5.70
2018-11-02T20:01:06.822Z,5.70
2018-11-02T20:03:34.978Z,5.70
2018-11-02T20:06:03.168Z,5.70
2018-11-02T20:08:31.658Z,5.60
2018-11-02T20:10:59.880Z,5.60
2018-11-02T20:13:28.080Z,5.60
2018-11-02T20:15:56.446Z,5.70
2018-11-02T20:18:24.642Z,5.60
2018-11-02T20:20:52.859Z,5.60
2018-11-02T20:23:21.431Z,5.60
2018-11-02T20:25:49.726Z,5.50
2018-11-02T20:28:17.838Z,5.50
2018-11-02T20:30:46.790Z,5.40
2018-11-02T20:33:14.985Z,5.40
2018-11-02T20:35:43.191Z,5.40
2018-11-02T20:38:12.591Z,5.30
2018-11-02T20:40:40.808Z,5.30
2018-11-02T20:43:09.023Z,5.30
2018-11-02T20:45:37.415Z,5.30
2018-11-02T20:48:09.395Z,5.30
2018-11-02T20:50:37.750Z,5.30
2018-11-02T20:53:05.958Z,5.20
2018-11-02T20:55:34.735Z,5.20
2018-11-02T20:58:03.467Z,5.30
2018-11-02T21:00:31.699Z,5.40
2018-11-02T21:02:59.918Z,5.30
2018-11-02T21:05:28.474Z,5.40
2018-11-02T21:07:56.666Z,5.40
2018-11-02T21:10:24.881Z,5.30
2018-11-02T21:12:53.251Z,5.30
2018-11-02T21:15:22.856Z,5.30
2018-11-02T21:17:51.440Z,5.30
2018-11-02T21:20:21.444Z,5.30
2018-11-02T21:22:49.912Z,5.40
2018-11-02T21:25:18.112Z,5.30
2018-11-02T21:27:49.015Z,5.30
2018-11-02T21:30:19.582Z,5.30
2018-11-02T21:32:48.381Z,5.30
2018-11-02T21:35:17.554Z,5.30
2018-11-02T21:37:46.017Z,5.30
2018-11-02T21:40:15.661Z,5.20
2018-11-02T21:42:44.094Z,5.20
2018-11-02T21:45:13.651Z,5.20
2018-11-02T21:47:42.047Z,5.20
2018-11-02T21:50:11.471Z,5.20
2018-11-02T21:52:39.735Z,5.20
2018-11-02T21:55:08.424Z,5.30
2018-11-02T21:57:37.246Z,5.40
2018-11-02T22:00:07.394Z,5.40
2018-11-02T22:02:35.609Z,5.40
2018-11-02T22:05:04.343Z,5.40
2018-11-02T22:07:32.552Z,5.50
2018-11-02T22:10:00.760Z,5.50
2018-11-02T22:12:29.468Z,5.60
2018-11-02T22:14:57.672Z,5.60
2018-11-02T22:17:25.877Z,5.70
2018-11-02T22:19:54.384Z,5.70
2018-11-02T22:22:22.686Z,5.70
2018-11-02T22:24:50.878Z,5.60
2018-11-02T22:27:19.744Z,5.60
2018-11-02T22:29:47.835Z,5.70
2018-11-02T22:32:16.143Z,5.60
2018-11-02T22:34:44.450Z,5.60
2018-11-02T22:37:12.638Z,5.60
2018-11-02T22:39:40.846Z,5.60
2018-11-02T22:42:09.174Z,5.50
2018-11-02T22:44:37.359Z,5.50
2018-11-02T22:47:05.545Z,5.40
2018-11-02T22:49:33.850Z,5.40
2018-11-02T22:52:02.052Z,5.40
2018-11-02T22:54:30.490Z,5.30
2018-11-02T22:56:59.017Z,5.20
2018-11-02T22:59:27.222Z,5.00
2018-11-02T23:01:55.424Z,5.00
2018-11-02T23:04:24.145Z,5.10
2018-11-02T23:06:52.352Z,5.10
2018-11-02T23:09:20.562Z,5.00
2018-11-02T23:11:49.246Z,5.00
2018-11-02T23:14:17.427Z,5.10
2018-11-02T23:16:45.651Z,5.00
2018-11-02T23:19:13.928Z,5.00
2018-11-02T23:21:42.606Z,5.00
2018-11-02T23:24:10.786Z,4.90
2018-11-02T23:26:39.654Z,4.80
2018-11-02T23:29:08.752Z,4.80
2018-11-02T23:31:37.366Z,4.80
2018-11-02T23:34:05.966Z,4.70
2018-11-02T23:36:34.512Z,4.60
2018-11-02T23:39:02.795Z,4.50
2018-11-02T23:41:31.046Z,4.50
2018-11-02T23:43:59.239Z,4.60
2018-11-02T23:46:27.438Z,4.60
2018-11-02T23:48:55.658Z,4.50
2018-11-02T23:51:23.946Z,4.60
2018-11-02T23:53:52.147Z,4.60
2018-11-02T23:56:20.463Z,4.70
2018-11-02T23:58:48.662Z,4.80
